Time;durP1;ratioP1;P1;durP2;ratioP2;P2;SDS_P1;SDS_P2;PMS_P1;PMS_P2;Temp;Humidity;BMP_temperature;BMP_pressure;BME280_temperature;BME280_humidity;BME280_pressure;Samples;Min_cycle;Max_cycle;Signal;HPM_P1;HPM_P2
2023/05/29 00:01:41;;;;;;;;;;;;;;;17.39;54.27;98300.03;7392836;19;19943;-81
2023/05/29 00:04:08;;;;;;;;;;;;;;;17.26;53.72;98298.97;7382219;19;19918;-81
2023/05/29 00:06:38;;;;;;;;;;;;;;;17.30;56.10;98300.22;7393059;19;19930;-80
2023/05/29 00:09:04;;;;;;;;;;;;;;;17.28;53.96;98304.94;7390901;19;20002;-81
2023/05/29 00:11:31;;;;;;;;;;;;;;;17.28;55.12;98312.97;7398271;19;19927;-81
2023/05/29 00:13:58;;;;;;;;;;;;;;;17.26;53.53;98306.97;7398844;19;19955;-82
2023/05/29 00:16:25;;;;;;;;;;;;;;;17.15;53.62;98309.41;7399108;19;19922;-80
2023/05/29 00:18:51;;;;;;;;;;;;;;;17.14;55.96;98307.75;7394183;19;19923;-81
2023/05/29 00:21:18;;;;;;;;;;;;;;;17.07;52.69;98300.53;7387042;19;19930;-83
2023/05/29 00:23:45;;;;;;;;;;;;;;;17.03;52.12;98301.13;7386660;19;19922;-80
2023/05/29 00:26:12;;;;;;;;;;;;;;;17.09;52.33;98295.00;7389010;19;20000;-82
2023/05/29 00:28:41;;;;;;;;;;;;;;;17.07;52.46;98289.84;7388914;19;19918;-80
2023/05/29 00:31:11;;;;;;;;;;;;;;;17.06;51.50;98293.56;7388630;19;19923;-81
2023/05/29 00:33:39;;;;;;;;;;;;;;;17.04;54.11;98297.44;7391785;19;20393;-80
2023/05/29 00:36:07;;;;;;;;;;;;;;;16.99;52.82;98294.53;7389206;19;19943;-80
2023/05/29 00:38:34;;;;;;;;;;;;;;;16.88;53.28;98283.41;7396641;19;19932;-79
2023/05/29 00:41:02;;;;;;;;;;;;;;;16.87;55.31;98288.94;7395287;19;20568;-79
2023/05/29 00:43:29;;;;;;;;;;;;;;;16.82;54.64;98288.69;7386383;19;20557;-82
2023/05/29 00:45:55;;;;;;;;;;;;;;;16.73;52.62;98287.19;7389628;19;19921;-81
2023/05/29 00:48:22;;;;;;;;;;;;;;;16.74;53.07;98280.81;7387487;19;20589;-83
2023/05/29 00:50:49;;;;;;;;;;;;;;;16.75;52.48;98290.50;7392089;19;19927;-81
2023/05/29 00:53:16;;;;;;;;;;;;;;;16.75;54.11;98285.97;7388055;19;19940;-80
2023/05/29 00:55:44;;;;;;;;;;;;;;;16.54;53.60;98284.19;7399819;19;20388;-80
2023/05/29 00:58:10;;;;;;;;;;;;;;;16.39;53.85;98286.16;7390487;19;19911;-79
2023/05/29 01:00:38;;;;;;;;;;;;;;;16.43;56.85;98284.75;7365945;19;19918;-79
2023/05/29 01:03:05;;;;;;;;;;;;;;;16.43;56.66;98292.75;7385309;19;19910;-80
2023/05/29 01:05:33;;;;;;;;;;;;;;;16.37;55.69;98291.66;7394615;19;19919;-81
2023/05/29 01:08:01;;;;;;;;;;;;;;;16.30;55.68;98284.63;7388939;19;19929;-81
2023/05/29 01:10:28;;;;;;;;;;;;;;;16.28;55.75;98284.84;7388732;19;20252;-81
2023/05/29 01:13:13;;;;;;;;;;;;;;;16.31;57.64;98280.97;7387439;19;19933;-82
2023/05/29 01:15:47;;;;;;;;;;;;;;;16.36;56.71;98279.34;7392756;19;19929;-82
2023/05/29 01:18:20;;;;;;;;;;;;;;;16.34;57.09;98280.56;7385016;19;19915;-82
2023/05/29 01:20:53;;;;;;;;;;;;;;;16.42;57.60;98285.75;7385981;19;19938;-80
2023/05/29 01:23:32;;;;;;;;;;;;;;;16.45;57.78;98285.34;7382233;19;20448;-81
2023/05/29 01:26:11;;;;;;;;;;;;;;;16.41;55.32;98284.94;7384091;19;19922;-80
2023/05/29 01:28:42;;;;;;;;;;;;;;;16.43;53.66;98284.75;7385707;19;20436;-81
2023/05/29 01:31:09;;;;;;;;;;;;;;;16.46;54.37;98284.34;7391117;19;20261;-81
2023/05/29 01:33:38;;;;;;;;;;;;;;;16.48;55.79;98274.28;7388966;19;20351;-81
2023/05/29 01:36:06;;;;;;;;;;;;;;;16.50;55.00;98282.09;7395751;19;19923;-81
2023/05/29 01:38:32;;;;;;;;;;;;;;;16.33;53.39;98282.41;7395045;19;19919;-82
2023/05/29 01:40:59;;;;;;;;;;;;;;;16.29;53.53;98277.66;7391367;19;19915;-80
2023/05/29 01:43:26;;;;;;;;;;;;;;;16.21;54.83;98281.28;7382504;19;19925;-83
2023/05/29 01:45:53;;;;;;;;;;;;;;;16.14;52.97;98275.06;7392185;19;19911;-81
2023/05/29 01:48:19;;;;;;;;;;;;;;;16.20;55.61;98277.81;7392472;19;19923;-83
2023/05/29 01:50:47;;;;;;;;;;;;;;;16.22;55.33;98278.44;7394180;19;20430;-81
2023/05/29 01:53:14;;;;;;;;;;;;;;;16.19;53.51;98276.16;7387586;19;19919;-84
2023/05/29 01:55:41;;;;;;;;;;;;;;;16.19;53.69;98286.84;7391478;19;19932;-84
2023/05/29 01:58:08;;;;;;;;;;;;;;;16.12;53.74;98285.97;7388364;19;20738;-82
2023/05/29 02:00:37;;;;;;;;;;;;;;;16.12;52.79;98288.63;7390521;19;20353;-81
2023/05/29 02:03:04;;;;;;;;;;;;;;;16.10;53.79;98287.16;7387013;19;19922;-82
2023/05/29 02:05:31;;;;;;;;;;;;;;;16.02;55.07;98288.13;7396345;19;19911;-79
2023/05/29 02:07:58;;;;;;;;;;;;;;;15.94;55.03;98296.28;7396185;19;19945;-80
2023/05/29 02:10:24;;;;;;;;;;;;;;;15.92;55.86;98296.47;7397832;19;19939;-80
2023/05/29 02:12:51;;;;;;;;;;;;;;;15.86;55.88;98293.75;7394993;19;19926;-79
2023/05/29 02:15:18;;;;;;;;;;;;;;;15.88;58.07;98294.38;7389629;19;19919;-80
2023/05/29 02:17:46;;;;;;;;;;;;;;;15.87;57.55;98292.72;7396611;19;20165;-80
2023/05/29 02:20:13;;;;;;;;;;;;;;;15.85;57.45;98292.06;7406701;19;19921;-79
2023/05/29 02:22:39;;;;;;;;;;;;;;;15.82;58.03;98295.13;7398760;19;19918;-79
2023/05/29 02:25:06;;;;;;;;;;;;;;;15.83;59.28;98291.47;7402543;19;19926;-82
2023/05/29 02:27:33;;;;;;;;;;;;;;;15.81;58.09;98296.97;7408795;19;20004;-81
2023/05/29 02:30:00;;;;;;;;;;;;;;;15.74;58.07;98286.22;7404551;19;19943;-82
2023/05/29 02:32:28;;;;;;;;;;;;;;;15.70;58.79;98289.50;7399751;19;20001;-83
2023/05/29 02:34:57;;;;;;;;;;;;;;;15.60;57.09;98289.75;7401000;19;19947;-80
2023/05/29 02:37:25;;;;;;;;;;;;;;;15.58;57.18;98294.47;7398465;19;19925;-81
2023/05/29 02:39:52;;;;;;;;;;;;;;;15.59;56.35;98290.78;7400210;19;20329;-80
2023/05/29 02:42:19;;;;;;;;;;;;;;;15.63;57.20;98284.03;7395251;19;19918;-81
2023/05/29 02:44:45;;;;;;;;;;;;;;;15.64;58.99;98287.53;7399559;19;20570;-80
2023/05/29 02:47:12;;;;;;;;;;;;;;;15.63;60.09;98286.72;7401964;19;19917;-78
2023/05/29 02:49:40;;;;;;;;;;;;;;;15.58;58.70;98286.47;7402187;19;19931;-81
2023/05/29 02:52:07;;;;;;;;;;;;;;;15.56;59.62;98289.34;7399187;19;20700;-80
2023/05/29 02:54:34;;;;;;;;;;;;;;;15.56;60.62;98284.00;7400747;19;19922;-80
2023/05/29 02:57:04;;;;;;;;;;;;;;;15.52;58.37;98287.22;7399031;19;19918;-80
2023/05/29 02:59:37;;;;;;;;;;;;;;;15.46;58.61;98280.81;7399709;19;19910;-80
2023/05/29 03:02:04;;;;;;;;;;;;;;;15.44;58.74;98284.69;7400989;19;19922;-79
2023/05/29 03:04:31;;;;;;;;;;;;;;;15.44;60.04;98276.69;7401905;19;19951;-81
2023/05/29 03:06:58;;;;;;;;;;;;;;;15.41;60.40;98280.56;7400634;19;19955;-79
2023/05/29 03:09:24;;;;;;;;;;;;;;;15.37;60.75;98284.59;7405199;19;19935;-79
2023/05/29 03:11:51;;;;;;;;;;;;;;;15.35;59.83;98281.31;7406581;19;19911;-80
2023/05/29 03:14:18;;;;;;;;;;;;;;;15.32;61.11;98282.53;7398901;19;19926;-81
2023/05/29 03:16:45;;;;;;;;;;;;;;;15.32;61.04;98285.19;7400095;19;19915;-82
2023/05/29 03:19:12;;;;;;;;;;;;;;;15.31;60.72;98286.19;7398463;19;19935;-79
2023/05/29 03:21:42;;;;;;;;;;;;;;;15.34;61.39;98284.97;7394599;19;19919;-81
2023/05/29 03:24:15;;;;;;;;;;;;;;;15.31;61.14;98285.34;7398616;19;20215;-81
2023/05/29 03:26:42;;;;;;;;;;;;;;;15.28;59.90;98280.41;7401533;19;19927;-79
2023/05/29 03:29:09;;;;;;;;;;;;;;;15.26;61.09;98277.09;7402559;19;20439;-80
2023/05/29 03:31:36;;;;;;;;;;;;;;;15.20;61.85;98283.19;7404166;19;19911;-80
2023/05/29 03:34:06;;;;;;;;;;;;;;;15.18;60.75;98287.88;7398217;19;20217;-80
2023/05/29 03:36:49;;;;;;;;;;;;;;;15.13;61.72;98289.25;7404733;19;19951;-81
2023/05/29 03:39:16;;;;;;;;;;;;;;;15.09;60.30;98285.31;7398666;19;19919;-81
2023/05/29 03:41:46;;;;;;;;;;;;;;;15.02;60.79;98287.06;7397573;19;19919;-79
2023/05/29 03:44:13;;;;;;;;;;;;;;;15.00;60.86;98289.09;7399785;19;19914;-79
2023/05/29 03:46:40;;;;;;;;;;;;;;;14.97;61.09;98286.81;7402398;19;19925;-80
2023/05/29 03:49:09;;;;;;;;;;;;;;;14.97;61.40;98286.81;7403130;19;19911;-78
2023/05/29 03:51:37;;;;;;;;;;;;;;;14.96;62.10;98290.50;7401519;19;19946;-78
2023/05/29 03:54:04;;;;;;;;;;;;;;;14.95;61.59;98298.66;7398497;19;19935;-78
2023/05/29 03:56:32;;;;;;;;;;;;;;;14.99;62.02;98299.94;7398713;19;19941;-78
2023/05/29 03:58:59;;;;;;;;;;;;;;;14.99;62.39;98299.94;7392128;19;19923;-79
2023/05/29 04:01:26;;;;;;;;;;;;;;;14.98;61.72;98308.94;7394165;19;19951;-78
2023/05/29 04:03:53;;;;;;;;;;;;;;;14.98;61.74;98300.94;7400992;19;19950;-78
2023/05/29 04:06:22;;;;;;;;;;;;;;;14.99;62.18;98307.94;7398139;19;19919;-79
2023/05/29 04:08:50;;;;;;;;;;;;;;;15.00;62.63;98317.56;7401657;19;19955;-77
2023/05/29 04:11:16;;;;;;;;;;;;;;;15.03;62.83;98317.19;7398782;19;19931;-78
2023/05/29 04:13:43;;;;;;;;;;;;;;;14.94;60.54;98324.47;7395950;19;19980;-77
2023/05/29 04:16:10;;;;;;;;;;;;;;;14.95;63.36;98318.13;7400775;19;20593;-79
2023/05/29 04:18:37;;;;;;;;;;;;;;;14.98;63.75;98327.56;7403151;19;19943;-78
2023/05/29 04:21:03;;;;;;;;;;;;;;;14.98;61.93;98324.91;7400609;19;19935;-78
2023/05/29 04:23:31;;;;;;;;;;;;;;;14.99;61.66;98330.06;7400373;19;19919;-80
2023/05/29 04:25:57;;;;;;;;;;;;;;;15.05;63.14;98331.16;7404374;19;19962;-79
2023/05/29 04:28:26;;;;;;;;;;;;;;;15.09;63.37;98332.47;7398167;19;19922;-78
2023/05/29 04:30:56;;;;;;;;;;;;;;;15.11;63.28;98336.59;7408197;19;19938;-78
2023/05/29 04:33:23;;;;;;;;;;;;;;;15.01;62.34;98345.84;7412962;19;19939;-78
2023/05/29 04:35:52;;;;;;;;;;;;;;;15.01;62.48;98351.19;7419252;19;19934;-78
2023/05/29 04:38:24;;;;;;;;;;;;;;;14.99;61.81;98345.25;7413966;19;19922;-77
2023/05/29 04:40:57;;;;;;;;;;;;;;;14.90;61.80;98342.66;7415972;19;19978;-77
2023/05/29 04:43:26;;;;;;;;;;;;;;;14.82;62.13;98342.72;7412024;19;19939;-77
2023/05/29 04:46:03;;;;;;;;;;;;;;;14.80;63.06;98347.44;7408342;19;19911;-78
2023/05/29 04:48:33;;;;;;;;;;;;;;;14.79;62.88;98345.78;7399884;19;19925;-78
2023/05/29 04:51:01;;;;;;;;;;;;;;;14.95;65.30;98354.59;7400431;19;20894;-80
2023/05/29 04:53:30;;;;;;;;;;;;;;;15.05;64.67;98349.81;7393276;19;20406;-79
2023/05/29 04:55:57;;;;;;;;;;;;;;;15.13;65.43;98355.88;7402521;19;19921;-80
2023/05/29 04:58:25;;;;;;;;;;;;;;;15.24;66.05;98357.22;7395236;19;19946;-80
2023/05/29 05:00:52;;;;;;;;;;;;;;;15.30;65.07;98356.50;7393223;19;21172;-78
2023/05/29 05:03:19;;;;;;;;;;;;;;;15.34;65.75;98360.44;7386714;19;19919;-80
2023/05/29 05:05:46;;;;;;;;;;;;;;;15.41;64.15;98362.38;7396120;19;19963;-79
2023/05/29 05:08:20;;;;;;;;;;;;;;;15.33;63.17;98369.47;7393830;19;19925;-80
2023/05/29 05:10:47;;;;;;;;;;;;;;;15.23;62.60;98368.91;7399471;19;19923;-78
2023/05/29 05:13:15;;;;;;;;;;;;;;;15.13;62.96;98373.69;7403556;19;19918;-78
2023/05/29 05:15:45;;;;;;;;;;;;;;;15.09;62.92;98369.75;7408190;19;21384;-80
2023/05/29 05:18:16;;;;;;;;;;;;;;;15.00;63.15;98363.69;7402166;19;19924;-79
2023/05/29 05:20:50;;;;;;;;;;;;;;;14.99;63.47;98367.38;7394189;19;19926;-78
2023/05/29 05:23:16;;;;;;;;;;;;;;;14.97;63.36;98373.88;7389731;19;20317;-77
2023/05/29 05:25:43;;;;;;;;;;;;;;;14.95;63.12;98376.72;7399477;19;20311;-79
2023/05/29 05:28:12;;;;;;;;;;;;;;;14.93;63.91;98371.59;7397277;19;19923;-79
2023/05/29 05:30:39;;;;;;;;;;;;;;;15.02;64.08;98376.84;7400152;19;19923;-78
2023/05/29 05:33:07;;;;;;;;;;;;;;;15.18;65.12;98378.47;7414594;19;19915;-78
2023/05/29 05:35:34;;;;;;;;;;;;;;;15.28;64.72;98379.03;7410063;19;19928;-82
2023/05/29 05:38:01;;;;;;;;;;;;;;;15.35;63.95;98383.44;7408340;19;19947;-80
2023/05/29 05:40:28;;;;;;;;;;;;;;;15.47;63.49;98381.09;7406120;19;19943;-80
2023/05/29 05:43:00;;;;;;;;;;;;;;;15.53;62.09;98385.69;7407741;19;19923;-79
2023/05/29 05:45:47;;;;;;;;;;;;;;;15.53;60.92;98385.69;7412150;19;19929;-81
2023/05/29 05:48:14;;;;;;;;;;;;;;;15.62;61.98;98380.25;7405555;19;19928;-81
2023/05/29 05:50:41;;;;;;;;;;;;;;;15.61;61.83;98386.59;7400617;19;19951;-83
2023/05/29 05:53:08;;;;;;;;;;;;;;;15.59;61.95;98384.94;7394342;19;19911;-82
2023/05/29 05:55:34;;;;;;;;;;;;;;;15.66;62.50;98393.00;7397078;19;19911;-82
2023/05/29 05:58:05;;;;;;;;;;;;;;;15.57;62.55;98402.16;7395519;19;19926;-81
2023/05/29 06:00:33;;;;;;;;;;;;;;;15.68;62.57;98403.50;7392700;19;20283;-83
2023/05/29 06:03:02;;;;;;;;;;;;;;;15.75;62.75;98404.44;7390560;19;19914;-82
2023/05/29 06:05:46;;;;;;;;;;;;;;;15.80;62.52;98413.53;7396696;19;19951;-83
2023/05/29 06:08:13;;;;;;;;;;;;;;;15.80;61.53;98412.72;7389967;19;19923;-80
2023/05/29 06:10:40;;;;;;;;;;;;;;;15.84;61.17;98413.97;7390848;19;19929;-81
2023/05/29 06:13:06;;;;;;;;;;;;;;;15.90;61.23;98407.03;7390647;19;19942;-82
2023/05/29 06:15:43;;;;;;;;;;;;;;;15.99;61.74;98408.59;7394078;19;19979;-82
2023/05/29 06:18:12;;;;;;;;;;;;;;;15.96;61.88;98406.31;7393182;19;19927;-80
2023/05/29 06:20:39;;;;;;;;;;;;;;;16.00;61.70;98412.91;7396066;19;19923;-85
2023/05/29 06:23:06;;;;;;;;;;;;;;;16.14;62.08;98411.19;7386775;19;19923;-82
2023/05/29 06:25:39;;;;;;;;;;;;;;;16.18;61.38;98423.97;7389150;19;19919;-83
2023/05/29 06:28:06;;;;;;;;;;;;;;;16.19;61.19;98420.31;7389225;19;20253;-83
2023/05/29 06:30:33;;;;;;;;;;;;;;;16.18;60.91;98423.97;7390988;19;19922;-80
2023/05/29 06:33:05;;;;;;;;;;;;;;;16.30;60.20;98423.44;7388807;19;20246;-82
2023/05/29 06:35:38;;;;;;;;;;;;;;;16.36;60.03;98430.72;7389962;19;19942;-80
2023/05/29 06:38:05;;;;;;;;;;;;;;;16.43;60.06;98434.28;7387302;19;19907;-82
2023/05/29 06:40:32;;;;;;;;;;;;;;;16.56;59.96;98434.41;7390068;19;19915;-81
2023/05/29 06:43:00;;;;;;;;;;;;;;;16.44;59.69;98435.94;7384770;19;19914;-80
2023/05/29 06:45:45;;;;;;;;;;;;;;;16.36;59.62;98438.72;7385747;19;19918;-81
2023/05/29 06:48:12;;;;;;;;;;;;;;;16.55;59.01;98443.41;7387168;19;19968;-81
2023/05/29 06:50:47;;;;;;;;;;;;;;;16.59;59.28;98444.69;7386255;19;19930;-86
2023/05/29 06:53:37;;;;;;;;;;;;;;;16.68;59.28;98448.03;7383727;19;19927;-83
2023/05/29 06:56:06;;;;;;;;;;;;;;;16.73;59.35;98455.47;7389676;19;20253;-83
2023/05/29 06:58:35;;;;;;;;;;;;;;;16.74;58.45;98457.13;7386352;19;19915;-84
2023/05/29 07:01:02;;;;;;;;;;;;;;;16.79;57.59;98455.56;7382964;19;19919;-80
2023/05/29 07:03:36;;;;;;;;;;;;;;;16.91;58.75;98453.19;7390704;19;19915;-83
2023/05/29 07:06:06;;;;;;;;;;;;;;;16.96;58.69;98461.47;7396962;19;19925;-81
2023/05/29 07:08:33;;;;;;;;;;;;;;;17.06;58.99;98450.41;7392044;19;19918;-83
2023/05/29 07:11:03;;;;;;;;;;;;;;;17.10;58.15;98446.34;7397658;19;19929;-79
2023/05/29 07:13:30;;;;;;;;;;;;;;;17.07;57.88;98452.91;7394890;19;20768;-81
2023/05/29 07:15:56;;;;;;;;;;;;;;;17.24;57.59;98442.69;7391978;19;20378;-82
2023/05/29 07:18:29;;;;;;;;;;;;;;;17.08;57.48;98445.69;7391237;19;20247;-81
2023/05/29 07:20:59;;;;;;;;;;;;;;;17.15;57.58;98453.78;7395726;19;20328;-83
2023/05/29 07:23:27;;;;;;;;;;;;;;;17.29;57.75;98452.81;7387176;19;19922;-80
2023/05/29 07:25:58;;;;;;;;;;;;;;;17.42;57.38;98449.41;7391274;19;19927;-79
2023/05/29 07:28:28;;;;;;;;;;;;;;;17.46;56.61;98450.66;7392157;19;19914;-81
2023/05/29 07:30:54;;;;;;;;;;;;;;;17.42;56.97;98458.25;7396607;19;19994;-83
2023/05/29 07:33:22;;;;;;;;;;;;;;;17.43;56.62;98457.22;7390595;19;20356;-81
2023/05/29 07:35:52;;;;;;;;;;;;;;;17.47;56.90;98457.66;7394516;19;20341;-83
2023/05/29 07:38:19;;;;;;;;;;;;;;;17.64;57.39;98450.97;7392334;19;19938;-82
2023/05/29 07:40:47;;;;;;;;;;;;;;;17.75;57.14;98461.09;7389454;19;19919;-83
2023/05/29 07:43:35;;;;;;;;;;;;;;;17.81;57.29;98458.66;7390943;19;20000;-77
2023/05/29 07:46:08;;;;;;;;;;;;;;;17.77;56.50;98455.50;7390187;19;19939;-79
2023/05/29 07:48:38;;;;;;;;;;;;;;;17.85;56.00;98462.56;7386406;19;19919;-81
2023/05/29 07:51:09;;;;;;;;;;;;;;;17.80;56.38;98457.00;7390029;19;20277;-82
2023/05/29 07:53:39;;;;;;;;;;;;;;;17.86;56.88;98446.34;7393081;19;19923;-80
2023/05/29 07:56:06;;;;;;;;;;;;;;;18.09;57.46;98450.50;7388641;19;19923;-82
2023/05/29 07:58:33;;;;;;;;;;;;;;;18.20;57.49;98449.94;7392949;19;19915;-80
2023/05/29 08:01:00;;;;;;;;;;;;;;;18.13;56.32;98451.75;7392243;19;19918;-83
2023/05/29 08:03:27;;;;;;;;;;;;;;;18.35;55.99;98453.25;7389513;19;20243;-83
2023/05/29 08:06:16;;;;;;;;;;;;;;;18.38;55.65;98442.13;7381969;19;19927;-84
2023/05/29 08:08:51;;;;;;;;;;;;;;;18.59;55.26;98445.66;7391342;19;19918;-84
2023/05/29 08:11:21;;;;;;;;;;;;;;;18.70;54.41;98453.06;7390662;19;19927;-81
2023/05/29 08:13:48;;;;;;;;;;;;;;;18.84;55.81;98444.03;7388536;19;19919;-85
2023/05/29 08:16:16;;;;;;;;;;;;;;;18.91;55.47;98443.22;7384836;19;21025;-84
2023/05/29 08:18:46;;;;;;;;;;;;;;;18.98;52.91;98452.88;7392674;19;19947;-84
2023/05/29 08:21:13;;;;;;;;;;;;;;;18.86;54.30;98452.69;7389969;19;19919;-80
2023/05/29 08:23:40;;;;;;;;;;;;;;;19.17;53.60;98450.38;7382021;19;20369;-79
2023/05/29 08:26:07;;;;;;;;;;;;;;;19.30;54.90;98445.81;7391413;19;19911;-80
2023/05/29 08:28:33;;;;;;;;;;;;;;;19.20;52.15;98448.13;7384536;19;19914;-86
2023/05/29 08:31:01;;;;;;;;;;;;;;;19.34;52.45;98446.22;7396488;19;19919;-82
2023/05/29 08:33:27;;;;;;;;;;;;;;;19.49;52.56;98451.34;7396685;19;19997;-85
2023/05/29 08:35:54;;;;;;;;;;;;;;;19.40;52.57;98450.72;7396172;19;19926;-79
2023/05/29 08:38:21;;;;;;;;;;;;;;;19.56;52.31;98446.75;7391075;19;19974;-80
2023/05/29 08:40:50;;;;;;;;;;;;;;;19.73;52.84;98447.97;7391047;19;19998;-85
2023/05/29 08:43:28;;;;;;;;;;;;;;;19.83;51.97;98446.72;7387392;19;19925;-83
2023/05/29 08:45:55;;;;;;;;;;;;;;;19.94;53.95;98446.03;7390458;19;19923;-82
2023/05/29 08:48:22;;;;;;;;;;;;;;;19.97;50.84;98442.09;7383748;19;19935;-84
2023/05/29 08:50:51;;;;;;;;;;;;;;;19.99;50.99;98443.53;7396050;19;19911;-84
2023/05/29 08:53:19;;;;;;;;;;;;;;;20.13;50.51;98442.41;7385913;19;19951;-81
2023/05/29 08:55:46;;;;;;;;;;;;;;;20.25;51.41;98441.72;7393412;19;20397;-81
2023/05/29 08:58:14;;;;;;;;;;;;;;;20.16;52.65;98441.97;7387048;19;19939;-84
2023/05/29 09:00:40;;;;;;;;;;;;;;;20.18;51.40;98439.91;7392017;19;19923;-83
2023/05/29 09:03:07;;;;;;;;;;;;;;;20.19;50.54;98440.72;7394224;19;19922;-83
2023/05/29 09:05:39;;;;;;;;;;;;;;;20.35;50.78;98439.38;7396694;19;19938;-80
2023/05/29 09:08:07;;;;;;;;;;;;;;;20.42;50.38;98445.53;7386527;19;19923;-85
2023/05/29 09:10:33;;;;;;;;;;;;;;;20.51;50.22;98444.25;7396894;19;19966;-82
2023/05/29 09:13:03;;;;;;;;;;;;;;;20.67;49.46;98442.91;7390730;19;19923;-86
2023/05/29 09:15:30;;;;;;;;;;;;;;;20.83;51.04;98439.66;7391018;19;19911;-82
2023/05/29 09:17:57;;;;;;;;;;;;;;;20.83;49.34;98439.66;7394230;19;19944;-85
2023/05/29 09:20:25;;;;;;;;;;;;;;;20.98;48.57;98439.31;7396073;19;20388;-82
2023/05/29 09:23:02;;;;;;;;;;;;;;;21.14;48.93;98429.03;7396790;19;19919;-82
2023/05/29 09:25:31;;;;;;;;;;;;;;;21.03;49.70;98438.66;7395891;19;19925;-80
2023/05/29 09:28:05;;;;;;;;;;;;;;;21.19;48.65;98430.00;7390892;19;19923;-80
2023/05/29 09:30:38;;;;;;;;;;;;;;;21.19;49.75;98434.56;7392958;19;19941;-78
2023/05/29 09:33:08;;;;;;;;;;;;;;;21.52;46.13;98418.09;7391352;19;20494;-83
2023/05/29 09:35:35;;;;;;;;;;;;;;;21.91;46.27;98432.94;7390536;19;20755;-82
2023/05/29 09:38:02;;;;;;;;;;;;;;;22.17;47.68;98430.09;7392351;19;19938;-80
2023/05/29 09:40:38;;;;;;;;;;;;;;;22.46;45.56;98423.03;7387704;19;19938;-80
2023/05/29 09:43:16;;;;;;;;;;;;;;;22.75;44.39;98435.66;7386661;19;19933;-78
2023/05/29 09:45:44;;;;;;;;;;;;;;;22.87;43.32;98430.25;7385630;19;19985;-77
2023/05/29 09:48:15;;;;;;;;;;;;;;;22.92;40.43;98421.47;7378805;19;19922;-80
2023/05/29 09:50:44;;;;;;;;;;;;;;;23.03;40.77;98431.47;7388826;19;19923;-80
2023/05/29 09:53:19;;;;;;;;;;;;;;;23.05;39.46;98439.34;7383984;19;20539;-81
2023/05/29 09:55:48;;;;;;;;;;;;;;;23.45;40.21;98445.63;7389977;19;19954;-78
2023/05/29 09:58:15;;;;;;;;;;;;;;;23.84;38.95;98442.41;7387050;19;19930;-78
2023/05/29 10:00:43;;;;;;;;;;;;;;;24.16;38.74;98437.34;7384918;19;20002;-78
2023/05/29 10:03:11;;;;;;;;;;;;;;;24.42;37.37;98433.22;7383683;19;19943;-79
2023/05/29 10:05:38;;;;;;;;;;;;;;;24.48;37.03;98426.84;7381501;19;19942;-83
2023/05/29 10:08:06;;;;;;;;;;;;;;;24.87;37.73;98429.66;7382640;19;19910;-81
2023/05/29 10:10:32;;;;;;;;;;;;;;;24.96;34.46;98424.63;7382263;19;19982;-80
2023/05/29 10:13:03;;;;;;;;;;;;;;;25.42;35.64;98438.88;7385103;19;19915;-79
2023/05/29 10:15:30;;;;;;;;;;;;;;;25.75;35.24;98416.25;7386195;19;19919;-81
2023/05/29 10:17:59;;;;;;;;;;;;;;;26.06;34.79;98417.41;7389290;19;20033;-81
2023/05/29 10:20:26;;;;;;;;;;;;;;;25.84;34.15;98420.19;7382212;19;19915;-82
2023/05/29 10:22:53;;;;;;;;;;;;;;;25.77;34.82;98424.13;7383798;19;20233;-81
2023/05/29 10:25:21;;;;;;;;;;;;;;;25.76;35.66;98417.06;7385716;19;19951;-81
2023/05/29 10:27:48;;;;;;;;;;;;;;;25.79;33.42;98406.53;7382084;19;19926;-80
2023/05/29 10:30:18;;;;;;;;;;;;;;;25.72;35.50;98415.94;7382389;19;19915;-81
2023/05/29 10:33:03;;;;;;;;;;;;;;;25.95;33.92;98420.28;7384779;19;19927;-77
2023/05/29 10:35:39;;;;;;;;;;;;;;;25.70;35.10;98408.06;7386196;19;20379;-80
2023/05/29 10:38:10;;;;;;;;;;;;;;;25.47;36.26;98408.31;7384806;19;20301;-82
2023/05/29 10:40:43;;;;;;;;;;;;;;;25.06;37.73;98415.84;7390608;19;19930;-79
2023/05/29 10:43:28;;;;;;;;;;;;;;;24.75;37.65;98418.94;7394297;19;19936;-81
2023/05/29 10:45:55;;;;;;;;;;;;;;;24.47;37.16;98411.69;7391325;19;19915;-79
2023/05/29 10:48:28;;;;;;;;;;;;;;;24.34;36.36;98406.56;7386069;19;19919;-83
2023/05/29 10:50:55;;;;;;;;;;;;;;;24.14;37.28;98401.63;7393409;19;19927;-81
2023/05/29 10:53:23;;;;;;;;;;;;;;;23.94;34.96;98402.09;7384055;19;19923;-79
2023/05/29 10:55:50;;;;;;;;;;;;;;;23.95;34.86;98409.13;7387941;19;19914;-79
2023/05/29 10:58:20;;;;;;;;;;;;;;;24.01;37.08;98408.16;7390979;19;19926;-81
2023/05/29 11:00:47;;;;;;;;;;;;;;;24.04;35.88;98406.84;7390803;19;19922;-81
2023/05/29 11:03:15;;;;;;;;;;;;;;;23.90;35.59;98414.41;7392994;19;19925;-80
2023/05/29 11:06:01;;;;;;;;;;;;;;;24.07;34.91;98400.97;7390082;19;20411;-83
2023/05/29 11:08:33;;;;;;;;;;;;;;;24.15;34.36;98405.16;7385126;19;19930;-82
2023/05/29 11:11:00;;;;;;;;;;;;;;;24.09;37.38;98398.81;7389456;19;19918;-80
2023/05/29 11:13:31;;;;;;;;;;;;;;;24.03;33.86;98405.22;7386485;19;19939;-83
2023/05/29 11:16:17;;;;;;;;;;;;;;;23.99;33.76;98406.78;7391355;19;19933;-79
2023/05/29 11:18:46;;;;;;;;;;;;;;;24.05;34.52;98403.91;7390790;19;20346;-83
2023/05/29 11:21:18;;;;;;;;;;;;;;;24.08;36.33;98402.59;7390332;19;19918;-79
2023/05/29 11:23:46;;;;;;;;;;;;;;;24.00;37.23;98411.09;7388492;19;19915;-78
2023/05/29 11:26:12;;;;;;;;;;;;;;;23.84;31.53;98407.28;7387595;19;19929;-78
2023/05/29 11:28:41;;;;;;;;;;;;;;;23.85;31.19;98403.50;7379916;19;19922;-79
2023/05/29 11:31:08;;;;;;;;;;;;;;;23.78;31.94;98402.88;7387288;19;19919;-80
2023/05/29 11:33:35;;;;;;;;;;;;;;;23.94;32.92;98406.69;7388591;19;19943;-82
2023/05/29 11:36:02;;;;;;;;;;;;;;;23.95;35.48;98409.13;7388066;19;19922;-80
2023/05/29 11:38:30;;;;;;;;;;;;;;;23.92;32.25;98401.50;7385473;19;20293;-80
2023/05/29 11:40:57;;;;;;;;;;;;;;;24.01;35.44;98410.03;7390970;19;19919;-81
2023/05/29 11:43:24;;;;;;;;;;;;;;;24.06;35.40;98399.31;7381498;19;19938;-81
2023/05/29 11:45:51;;;;;;;;;;;;;;;24.07;35.20;98404.50;7384561;19;19984;-82
2023/05/29 11:48:18;;;;;;;;;;;;;;;24.09;34.47;98410.47;7384592;19;19944;-81
2023/05/29 11:50:54;;;;;;;;;;;;;;;23.98;31.48;98397.81;7391902;19;19919;-80
2023/05/29 11:53:21;;;;;;;;;;;;;;;24.10;33.68;98400.47;7388919;19;19922;-80
2023/05/29 11:55:50;;;;;;;;;;;;;;;23.98;31.39;98400.53;7390424;19;19919;-81
2023/05/29 11:58:17;;;;;;;;;;;;;;;24.15;33.58;98407.88;7384765;19;19925;-82
2023/05/29 12:00:50;;;;;;;;;;;;;;;24.15;28.82;98402.47;7383188;19;19922;-81
2023/05/29 12:03:17;;;;;;;;;;;;;;;24.28;30.76;98396.75;7386307;19;19915;-78
2023/05/29 12:05:48;;;;;;;;;;;;;;;24.39;33.51;98406.66;7386860;19;19927;-81
2023/05/29 12:08:15;;;;;;;;;;;;;;;24.32;31.44;98398.69;7383586;19;19926;-81
2023/05/29 12:10:48;;;;;;;;;;;;;;;24.39;31.90;98395.03;7389076;19;19933;-78
2023/05/29 12:13:18;;;;;;;;;;;;;;;24.52;33.72;98397.44;7388844;19;19965;-84
2023/05/29 12:15:45;;;;;;;;;;;;;;;24.66;33.47;98400.63;7388746;19;20380;-79
2023/05/29 12:18:12;;;;;;;;;;;;;;;24.91;32.16;98395.63;7386639;19;20253;-84
2023/05/29 12:20:38;;;;;;;;;;;;;;;24.97;31.49;98394.63;7388076;19;19914;-81
2023/05/29 12:23:05;;;;;;;;;;;;;;;25.05;31.03;98396.09;7384473;19;19918;-77
2023/05/29 12:25:35;;;;;;;;;;;;;;;24.86;32.38;98402.84;7390968;19;19939;-81
2023/05/29 12:28:01;;;;;;;;;;;;;;;24.77;31.15;98399.72;7394692;19;19929;-84
2023/05/29 12:30:28;;;;;;;;;;;;;;;24.61;32.11;98392.44;7389944;19;19974;-81
2023/05/29 12:33:01;;;;;;;;;;;;;;;24.42;31.21;98406.19;7392869;19;19914;-83
2023/05/29 12:35:29;;;;;;;;;;;;;;;24.38;31.54;98398.78;7395907;19;19911;-83
2023/05/29 12:37:56;;;;;;;;;;;;;;;24.35;30.42;98402.00;7392527;19;20629;-83
2023/05/29 12:40:27;;;;;;;;;;;;;;;24.31;29.99;98397.06;7395300;19;19922;-80
2023/05/29 12:42:56;;;;;;;;;;;;;;;24.32;31.49;98393.28;7391718;19;20388;-81
2023/05/29 12:45:30;;;;;;;;;;;;;;;24.27;30.91;98400.50;7393999;19;19943;-83
2023/05/29 12:47:57;;;;;;;;;;;;;;;24.38;31.47;98396.09;7386136;19;19918;-80
2023/05/29 12:50:28;;;;;;;;;;;;;;;24.47;32.18;98395.47;7382680;19;19954;-80
2023/05/29 12:52:55;;;;;;;;;;;;;;;24.65;30.69;98390.91;7384321;19;19929;-80
2023/05/29 12:55:25;;;;;;;;;;;;;;;24.82;31.51;98388.16;7391861;19;19922;-83
2023/05/29 12:57:53;;;;;;;;;;;;;;;25.01;31.37;98396.84;7390571;19;19938;-81